Time;durP1;ratioP1;P1;durP2;ratioP2;P2;SDS_P1;SDS_P2;PMS_P1;PMS_P2;Temp;Humidity;BMP_temperature;BMP_pressure;BME280_temperature;BME280_humidity;BME280_pressure;Samples;Min_cycle;Max_cycle;Signal;HPM_P1;HPM_P2
2022/10/29 00:00:26;;;;;;;26.05;15.77;;;10.10;99.90;;;;;;5034978;28;20116;-83
2022/10/29 00:02:51;;;;;;;26.23;16.65;;;10.10;99.90;;;;;;5033579;28;20494;-84
2022/10/29 00:05:17;;;;;;;28.02;17.60;;;10.10;99.90;;;;;;5034870;28;20028;-83
2022/10/29 00:07:46;;;;;;;31.35;17.67;;;10.10;99.90;;;;;;5033454;28;20109;-83
2022/10/29 00:10:11;;;;;;;25.88;17.58;;;10.10;99.90;;;;;;5036537;28;20028;-83
2022/10/29 00:12:38;;;;;;;27.58;16.60;;;10.10;99.90;;;;;;5035322;28;20030;-83
2022/10/29 00:15:04;;;;;;;28.55;17.35;;;10.10;99.90;;;;;;5035767;28;20559;-83
2022/10/29 00:17:30;;;;;;;25.02;16.48;;;10.10;99.90;;;;;;5033903;28;20617;-81
2022/10/29 00:19:55;;;;;;;23.52;15.77;;;10.10;99.90;;;;;;5035848;28;20120;-82
2022/10/29 00:22:21;;;;;;;23.48;14.98;;;10.10;99.90;;;;;;5035454;28;20075;-84
2022/10/29 00:24:47;;;;;;;24.33;14.57;;;10.10;99.90;;;;;;5034463;28;20524;-83
2022/10/29 00:27:13;;;;;;;23.65;14.75;;;10.10;99.90;;;;;;5034449;28;20032;-83
2022/10/29 00:29:39;;;;;;;21.33;16.15;;;10.10;99.90;;;;;;5032798;28;20025;-83
2022/10/29 00:32:04;;;;;;;21.55;14.52;;;10.10;99.90;;;;;;5032793;28;20025;-82
2022/10/29 00:34:30;;;;;;;23.42;17.15;;;10.20;99.90;;;;;;5049310;28;20124;-82
2022/10/29 00:36:56;;;;;;;22.73;15.18;;;10.20;99.90;;;;;;5032849;28;20112;-82
2022/10/29 00:39:22;;;;;;;27.85;17.98;;;10.10;99.90;;;;;;5036877;28;20056;-83
2022/10/29 00:41:48;;;;;;;31.05;17.88;;;10.20;99.90;;;;;;5041968;28;20036;-82
2022/10/29 00:44:13;;;;;;;31.25;19.02;;;10.20;99.90;;;;;;5034378;28;20020;-82
2022/10/29 00:47:06;;;;;;;33.35;19.02;;;10.20;99.90;;;;;;5034297;28;20021;-83
2022/10/29 00:49:34;;;;;;;24.52;17.52;;;10.20;99.90;;;;;;5026965;28;20030;-82
2022/10/29 00:52:02;;;;;;;29.27;18.15;;;10.30;99.90;;;;;;5033855;28;20625;-84
2022/10/29 00:54:29;;;;;;;;;;;10.30;99.90;;;;;;5034546;28;20032;-83
2022/10/29 00:57:02;;;;;;;23.83;15.40;;;10.30;99.90;;;;;;5022636;28;19975;-83
2022/10/29 00:59:27;;;;;;;22.35;15.15;;;10.20;99.90;;;;;;5034480;28;20029;-83
2022/10/29 01:01:54;;;;;;;17.90;14.05;;;10.30;99.90;;;;;;5037621;28;20037;-84
2022/10/29 01:04:22;;;;;;;18.50;13.43;;;10.20;99.90;;;;;;5038591;28;20112;-83
2022/10/29 01:06:48;;;;;;;16.33;12.88;;;10.20;99.90;;;;;;5051545;28;20049;-81
2022/10/29 01:09:14;;;;;;;19.65;13.82;;;10.20;99.90;;;;;;5047787;28;20044;-82
2022/10/29 01:11:55;;;;;;;16.70;11.02;;;10.20;99.90;;;;;;5039889;28;20037;-84
2022/10/29 01:14:32;;;;;;;19.30;11.70;;;10.20;99.90;;;;;;5034242;28;20026;-83
2022/10/29 01:17:24;;;;;;;16.50;10.93;;;10.20;99.90;;;;;;5032014;28;20022;-83
2022/10/29 01:20:28;;;;;;;16.25;10.48;;;10.20;99.90;;;;;;5033712;28;20036;-83
2022/10/29 01:23:02;;;;;;;12.90;9.07;;;10.00;99.90;;;;;;5036672;28;20009;-84
2022/10/29 01:25:40;;;;;;;10.63;8.68;;;9.90;99.90;;;;;;5035179;28;20100;-83
2022/10/29 01:28:27;;;;;;;12.57;9.55;;;9.70;99.90;;;;;;5033608;28;20408;-84
2022/10/29 01:31:22;;;;;;;11.73;8.88;;;9.70;99.90;;;;;;5036153;28;20036;-83
2022/10/29 01:34:02;;;;;;;12.25;7.40;;;9.50;99.90;;;;;;5035092;28;20043;-85
2022/10/29 01:36:48;;;;;;;10.90;8.15;;;9.40;99.90;;;;;;5035913;28;20089;-84
2022/10/29 01:39:36;;;;;;;8.63;6.70;;;9.40;99.90;;;;;;5058380;28;20037;-84
2022/10/29 01:42:13;;;;;;;8.25;5.85;;;9.30;99.90;;;;;;5032977;28;20394;-83
2022/10/29 01:44:49;;;;;;;7.83;5.30;;;9.30;99.90;;;;;;5032919;28;20022;-83
2022/10/29 01:47:18;;;;;;;6.15;5.35;;;9.40;99.90;;;;;;5032802;28;20282;-82
2022/10/29 01:49:50;;;;;;;7.15;5.57;;;9.30;99.90;;;;;;5032946;28;20018;-82
2022/10/29 01:52:19;;;;;;;9.48;5.78;;;9.30;99.90;;;;;;5034983;28;20061;-83
2022/10/29 01:54:46;;;;;;;6.47;4.82;;;9.30;99.90;;;;;;5033125;28;20017;-84
2022/10/29 01:57:24;;;;;;;6.05;4.70;;;9.30;99.90;;;;;;5024489;28;20017;-83
2022/10/29 01:59:50;;;;;;;7.05;5.50;;;9.40;99.90;;;;;;5032435;28;20112;-83
2022/10/29 02:02:43;;;;;;;7.65;5.30;;;9.30;99.90;;;;;;5031110;28;20018;-81
2022/10/29 02:05:33;;;;;;;7.18;4.78;;;9.40;99.90;;;;;;5032297;28;20018;-83
2022/10/29 02:08:12;;;;;;;7.57;4.55;;;9.30;99.90;;;;;;5031067;28;20032;-81
2022/10/29 02:10:43;;;;;;;8.85;5.07;;;9.30;99.90;;;;;;5032729;28;20018;-82
2022/10/29 02:13:13;;;;;;;8.07;5.25;;;9.30;99.90;;;;;;5033630;28;20030;-81
2022/10/29 02:15:47;;;;;;;8.48;5.35;;;9.30;99.90;;;;;;5040347;28;20024;-80
2022/10/29 02:18:13;;;;;;;9.13;6.00;;;9.30;99.90;;;;;;5034332;28;20025;-82
2022/10/29 02:20:43;;;;;;;7.55;5.85;;;9.30;99.90;;;;;;5032476;28;20040;-81
2022/10/29 02:23:10;;;;;;;7.25;5.75;;;9.30;99.90;;;;;;5031062;28;20025;-80
2022/10/29 02:25:36;;;;;;;6.57;5.43;;;9.30;99.90;;;;;;5032158;28;20018;-82
2022/10/29 02:28:01;;;;;;;7.40;5.47;;;9.30;99.90;;;;;;5031268;28;20120;-81
2022/10/29 02:30:27;;;;;;;8.60;5.78;;;9.30;99.90;;;;;;5031886;28;20032;-81
2022/10/29 02:32:53;;;;;;;5.40;4.57;;;9.30;99.90;;;;;;5031132;28;20036;-83
2022/10/29 02:35:19;;;;;;;8.43;5.47;;;9.30;99.90;;;;;;5031002;28;20029;-84
2022/10/29 02:37:45;;;;;;;9.73;6.63;;;9.40;99.90;;;;;;5032234;28;20071;-82
2022/10/29 02:40:11;;;;;;;8.68;5.63;;;9.40;99.90;;;;;;5032697;28;20449;-84
2022/10/29 02:42:37;;;;;;;7.97;5.28;;;9.30;99.90;;;;;;5035562;28;20385;-85
2022/10/29 02:45:04;;;;;;;8.40;5.32;;;9.40;99.90;;;;;;5036210;28;20474;-83
2022/10/29 02:47:30;;;;;;;5.88;4.30;;;9.40;99.90;;;;;;5034693;28;20117;-83
2022/10/29 02:49:55;;;;;;;9.65;5.93;;;9.40;99.90;;;;;;5034817;28;20111;-84
2022/10/29 02:52:21;;;;;;;7.68;5.07;;;9.40;99.90;;;;;;5036309;28;20075;-84
2022/10/29 02:54:47;;;;;;;9.40;6.10;;;9.50;99.90;;;;;;5034752;28;20020;-82
2022/10/29 02:57:13;;;;;;;7.22;5.07;;;9.50;99.90;;;;;;5036822;28;20029;-83
2022/10/29 02:59:39;;;;;;;8.25;5.68;;;9.50;99.90;;;;;;5036721;28;20017;-79
2022/10/29 03:02:04;;;;;;;8.38;4.85;;;9.60;99.90;;;;;;5036216;28;20363;-82
2022/10/29 03:04:30;;;;;;;6.57;5.57;;;9.60;99.90;;;;;;5036760;28;20018;-81
2022/10/29 03:06:56;;;;;;;7.00;5.32;;;9.70;99.90;;;;;;5040525;28;20081;-79
2022/10/29 03:09:22;;;;;;;7.72;5.63;;;9.70;99.90;;;;;;5041652;28;20041;-82
2022/10/29 03:11:48;;;;;;;8.48;5.43;;;9.60;99.90;;;;;;5035688;28;20022;-82
2022/10/29 03:14:14;;;;;;;7.00;5.50;;;9.60;99.90;;;;;;5036332;28;20080;-83
2022/10/29 03:16:39;;;;;;;11.70;5.68;;;9.60;99.90;;;;;;5036515;28;20107;-83
2022/10/29 03:19:05;;;;;;;9.10;5.93;;;9.60;99.90;;;;;;5042702;28;20022;-82
2022/10/29 03:21:31;;;;;;;7.47;5.82;;;9.70;99.90;;;;;;5046381;28;20042;-82
2022/10/29 03:23:57;;;;;;;8.32;5.88;;;9.70;99.90;;;;;;5050014;28;20017;-81
2022/10/29 03:26:23;;;;;;;8.27;6.25;;;9.70;99.90;;;;;;5052863;28;20029;-83
2022/10/29 03:28:48;;;;;;;6.18;5.20;;;9.80;99.90;;;;;;5048239;28;20069;-84
2022/10/29 03:31:14;;;;;;;7.25;6.00;;;9.80;99.90;;;;;;5036686;28;20083;-83
2022/10/29 03:33:40;;;;;;;7.05;5.47;;;9.90;99.90;;;;;;5034163;28;20026;-83
2022/10/29 03:36:07;;;;;;;8.32;6.15;;;10.00;99.90;;;;;;5034430;28;20025;-82
2022/10/29 03:38:33;;;;;;;7.15;5.35;;;10.00;99.90;;;;;;5034172;28;20033;-85
2022/10/29 03:41:00;;;;;;;7.03;5.88;;;10.00;99.90;;;;;;5035425;28;20052;-86
2022/10/29 03:43:26;;;;;;;8.23;5.50;;;10.00;99.90;;;;;;5034153;28;20017;-84
2022/10/29 03:45:54;;;;;;;9.88;6.13;;;10.10;99.90;;;;;;5034901;28;20386;-83
2022/10/29 03:48:20;;;;;;;8.18;6.20;;;10.10;99.90;;;;;;5039181;28;20423;-83
2022/10/29 03:51:01;;;;;;;8.38;6.40;;;10.20;99.90;;;;;;5046848;28;20124;-83
2022/10/29 03:53:28;;;;;;;11.93;5.40;;;10.10;99.90;;;;;;5034542;28;20368;-82
2022/10/29 03:55:55;;;;;;;9.60;6.47;;;10.10;99.90;;;;;;5031834;28;20029;-83
2022/10/29 03:58:22;;;;;;;7.30;5.95;;;10.10;99.90;;;;;;5034997;28;20079;-81
2022/10/29 04:01:03;;;;;;;8.93;5.97;;;10.20;99.90;;;;;;5033287;28;20033;-82
2022/10/29 04:03:31;;;;;;;8.73;6.07;;;10.20;99.90;;;;;;5034607;28;20176;-81
2022/10/29 04:05:59;;;;;;;6.78;6.00;;;10.20;99.90;;;;;;5034438;28;20471;-81
2022/10/29 04:08:25;;;;;;;6.47;5.65;;;10.20;99.90;;;;;;5034280;28;20029;-81
2022/10/29 04:10:51;;;;;;;10.15;5.40;;;10.20;99.90;;;;;;5034340;28;20718;-82
2022/10/29 04:13:18;;;;;;;6.88;5.35;;;10.20;99.90;;;;;;5033999;28;20028;-81
2022/10/29 04:15:44;;;;;;;10.73;5.03;;;10.30;99.90;;;;;;5034271;28;20065;-82
2022/10/29 04:18:11;;;;;;;7.70;5.70;;;10.30;99.90;;;;;;5033039;28;20379;-84
2022/10/29 04:20:38;;;;;;;7.53;5.90;;;10.20;99.90;;;;;;5033180;28;20483;-83
2022/10/29 04:23:04;;;;;;;7.70;5.40;;;10.30;99.90;;;;;;5034111;28;20022;-84
2022/10/29 04:25:30;;;;;;;5.38;4.82;;;10.30;99.90;;;;;;5034325;28;20036;-84
2022/10/29 04:27:56;;;;;;;6.15;4.75;;;10.30;99.90;;;;;;5034003;28;20022;-82
2022/10/29 04:30:23;;;;;;;7.43;5.28;;;10.30;99.90;;;;;;5034045;28;20493;-83
2022/10/29 04:32:49;;;;;;;6.73;5.70;;;10.30;99.90;;;;;;5033063;28;20025;-82
2022/10/29 04:35:15;;;;;;;7.55;5.57;;;10.30;99.90;;;;;;5034367;28;20656;-81
2022/10/29 04:37:41;;;;;;;6.88;5.45;;;10.40;99.90;;;;;;5033139;28;20032;-83
2022/10/29 04:40:08;;;;;;;11.25;5.10;;;10.40;99.90;;;;;;5034004;28;20022;-82
2022/10/29 04:42:37;;;;;;;7.45;5.30;;;10.40;99.90;;;;;;5032258;28;20028;-82
2022/10/29 04:45:07;;;;;;;7.22;5.35;;;10.40;99.90;;;;;;5032859;28;20435;-83
2022/10/29 04:47:33;;;;;;;11.38;5.05;;;10.40;99.90;;;;;;5034191;28;20033;-83
2022/10/29 04:49:59;;;;;;;8.57;5.40;;;10.30;99.90;;;;;;5033785;28;20413;-82
2022/10/29 04:52:25;;;;;;;6.53;5.00;;;10.40;99.90;;;;;;5033155;28;20037;-83
2022/10/29 04:54:51;;;;;;;6.03;4.60;;;10.40;99.90;;;;;;5034201;28;20029;-83
2022/10/29 04:57:16;;;;;;;7.57;4.95;;;10.30;99.90;;;;;;5026484;28;20029;-84
2022/10/29 04:59:43;;;;;;;5.45;4.57;;;10.30;99.90;;;;;;5034352;28;20068;-82
2022/10/29 05:02:10;;;;;;;9.07;5.65;;;10.30;99.90;;;;;;5035034;28;20029;-83
2022/10/29 05:04:35;;;;;;;7.55;4.60;;;10.30;99.90;;;;;;5036997;28;20041;-81
2022/10/29 05:07:01;;;;;;;6.05;4.80;;;10.30;99.90;;;;;;5045227;28;20022;-82
2022/10/29 05:09:27;;;;;;;4.90;4.40;;;10.40;99.90;;;;;;5034428;28;20081;-83
2022/10/29 05:11:53;;;;;;;6.50;5.07;;;10.40;99.90;;;;;;5038385;28;20014;-83
2022/10/29 05:14:19;;;;;;;9.82;5.07;;;10.40;99.90;;;;;;5036763;28;20026;-83
2022/10/29 05:16:45;;;;;;;7.20;4.78;;;10.40;99.90;;;;;;5047413;28;20455;-82
2022/10/29 05:19:10;;;;;;;5.55;4.82;;;10.40;99.90;;;;;;5035361;28;20583;-83
2022/10/29 05:21:36;;;;;;;6.88;4.88;;;10.50;99.90;;;;;;5032476;28;20037;-82
2022/10/29 05:24:03;;;;;;;6.20;5.03;;;10.50;99.90;;;;;;5040904;28;20122;-82
2022/10/29 05:26:32;;;;;;;6.60;5.10;;;10.60;99.90;;;;;;5034281;28;20025;-83
2022/10/29 05:28:58;;;;;;;9.40;4.95;;;10.60;99.90;;;;;;5039639;28;20383;-81
2022/10/29 05:31:24;;;;;;;6.90;5.18;;;10.60;99.90;;;;;;5037153;28;20025;-84
2022/10/29 05:33:50;;;;;;;7.95;6.15;;;10.60;99.90;;;;;;5033321;28;20014;-82
2022/10/29 05:36:16;;;;;;;7.13;4.82;;;10.70;99.90;;;;;;5033872;28;20040;-83
2022/10/29 05:38:41;;;;;;;6.15;4.93;;;10.70;99.90;;;;;;5032421;28;20486;-82
2022/10/29 05:41:08;;;;;;;9.30;5.68;;;10.70;99.90;;;;;;5029916;28;20044;-82
2022/10/29 05:43:34;;;;;;;6.65;5.72;;;10.70;99.90;;;;;;5034704;28;20056;-81
2022/10/29 05:46:03;;;;;;;6.40;4.60;;;10.70;99.90;;;;;;5034504;28;20057;-82
2022/10/29 05:48:29;;;;;;;10.70;6.20;;;10.70;99.90;;;;;;5032530;28;20025;-82
2022/10/29 05:50:56;;;;;;;8.52;5.93;;;10.70;99.90;;;;;;5031613;28;20049;-84
2022/10/29 05:53:22;;;;;;;7.00;5.25;;;10.70;99.90;;;;;;5032177;28;20136;-83
2022/10/29 05:55:48;;;;;;;7.50;5.75;;;10.80;99.90;;;;;;5028523;28;20108;-82
2022/10/29 05:58:14;;;;;;;6.22;5.32;;;10.80;99.90;;;;;;5031048;28;20021;-83
2022/10/29 06:00:43;;;;;;;7.72;5.85;;;10.80;99.90;;;;;;5032182;28;20033;-83
2022/10/29 06:03:20;;;;;;;6.40;5.25;;;10.80;99.90;;;;;;5032759;28;20044;-81
2022/10/29 06:05:47;;;;;;;7.53;5.60;;;10.80;99.90;;;;;;5030983;28;20021;-83
2022/10/29 06:08:13;;;;;;;8.23;5.72;;;10.80;99.90;;;;;;5032063;28;20017;-83
2022/10/29 06:10:39;;;;;;;7.50;5.15;;;10.80;99.90;;;;;;5032333;28;20014;-82
2022/10/29 06:13:12;;;;;;;7.15;5.00;;;10.80;99.90;;;;;;5031648;28;20025;-81
2022/10/29 06:15:38;;;;;;;5.28;4.43;;;10.80;99.90;;;;;;5032045;28;20033;-81
2022/10/29 06:18:04;;;;;;;6.47;4.93;;;10.80;99.90;;;;;;5032002;28;20025;-83
2022/10/29 06:20:30;;;;;;;7.55;5.18;;;10.80;99.90;;;;;;5031986;28;20077;-82
2022/10/29 06:22:57;;;;;;;5.65;4.80;;;10.80;99.90;;;;;;5031960;28;20370;-82
2022/10/29 06:25:24;;;;;;;7.15;5.43;;;10.90;99.90;;;;;;5032039;28;20064;-84
2022/10/29 06:28:02;;;;;;;6.68;5.10;;;10.90;99.90;;;;;;5031496;28;20042;-84
2022/10/29 06:30:29;;;;;;;7.65;4.93;;;11.00;99.90;;;;;;5031482;28;20026;-81
2022/10/29 06:32:55;;;;;;;6.90;4.47;;;11.00;99.90;;;;;;5031681;28;20026;-82
2022/10/29 06:35:22;;;;;;;10.57;8.00;;;11.00;99.90;;;;;;5032114;28;20017;-83
2022/10/29 06:37:48;;;;;;;5.80;4.30;;;11.00;99.90;;;;;;5031847;28;20038;-82
2022/10/29 06:40:14;;;;;;;6.85;4.90;;;11.00;99.90;;;;;;5033411;28;20038;-83
2022/10/29 06:42:40;;;;;;;7.60;4.43;;;11.10;99.90;;;;;;5032826;28;20391;-83
2022/10/29 06:45:07;;;;;;;7.90;5.32;;;11.00;99.90;;;;;;5032362;28;20026;-84
2022/10/29 06:47:41;;;;;;;6.00;4.68;;;11.10;99.90;;;;;;5030785;28;20564;-82
2022/10/29 06:50:08;;;;;;;6.00;5.25;;;11.10;99.90;;;;;;5030386;28;20017;-83
2022/10/29 06:52:34;;;;;;;7.60;5.05;;;11.10;99.90;;;;;;5032348;28;20486;-83
2022/10/29 06:55:03;;;;;;;7.85;5.35;;;11.10;99.90;;;;;;5032782;28;20024;-81
2022/10/29 06:57:29;;;;;;;7.22;5.35;;;11.10;99.90;;;;;;5039562;28;20045;-84
2022/10/29 06:59:55;;;;;;;10.35;6.45;;;11.10;99.90;;;;;;5038248;28;20018;-83
2022/10/29 07:02:21;;;;;;;8.80;5.50;;;11.10;99.90;;;;;;5035472;28;20406;-83
2022/10/29 07:04:47;;;;;;;8.98;5.25;;;11.00;99.90;;;;;;5048641;28;20047;-82
2022/10/29 07:07:14;;;;;;;8.45;5.97;;;11.00;99.90;;;;;;5038786;28;20084;-83
2022/10/29 07:09:41;;;;;;;6.32;5.25;;;11.00;99.90;;;;;;5032256;28;20022;-83
2022/10/29 07:12:08;;;;;;;8.32;5.90;;;10.90;99.90;;;;;;5031278;28;20391;-83
2022/10/29 07:14:36;;;;;;;5.13;4.53;;;10.90;99.90;;;;;;5031960;28;20030;-82
2022/10/29 07:17:02;;;;;;;9.63;5.57;;;11.00;99.90;;;;;;5031928;28;20422;-82
2022/10/29 07:19:28;;;;;;;9.90;6.00;;;11.00;99.90;;;;;;5031244;28;20064;-83
2022/10/29 07:21:54;;;;;;;9.43;6.25;;;11.10;99.90;;;;;;5031915;28;20048;-85
2022/10/29 07:24:20;;;;;;;7.57;6.18;;;11.20;99.90;;;;;;5033165;28;20028;-83
2022/10/29 07:26:46;;;;;;;16.70;10.57;;;11.20;99.90;;;;;;5034619;28;20025;-83
2022/10/29 07:29:12;;;;;;;8.07;5.93;;;11.20;99.90;;;;;;5036662;28;20024;-84
2022/10/29 07:31:38;;;;;;;11.38;7.80;;;11.20;99.90;;;;;;5037758;28;20029;-81
2022/10/29 07:34:03;;;;;;;14.50;7.05;;;11.20;99.90;;;;;;5049381;28;20048;-81
2022/10/29 07:36:30;;;;;;;11.15;6.47;;;11.20;99.90;;;;;;5040616;28;20096;-82
2022/10/29 07:38:56;;;;;;;8.13;6.90;;;11.20;99.90;;;;;;5040291;28;20024;-81
2022/10/29 07:41:22;;;;;;;12.15;6.47;;;11.30;99.90;;;;;;5042884;28;20463;-83
2022/10/29 07:43:47;;;;;;;12.30;7.07;;;11.30;99.90;;;;;;5027357;28;20025;-81
2022/10/29 07:46:13;;;;;;;11.23;6.93;;;11.40;99.90;;;;;;5018045;28;20041;-81
2022/10/29 07:48:39;;;;;;;8.75;6.38;;;11.40;99.90;;;;;;5016698;28;20386;-82
2022/10/29 07:51:05;;;;;;;7.18;5.47;;;11.50;99.90;;;;;;5027543;28;20484;-82
2022/10/29 07:53:31;;;;;;;10.07;6.07;;;11.40;99.90;;;;;;5042009;28;20088;-83
2022/10/29 07:55:57;;;;;;;12.10;7.18;;;11.50;99.90;;;;;;5017286;28;20104;-82
2022/10/29 07:58:24;;;;;;;12.88;7.72;;;11.50;99.90;;;;;;5022693;28;20055;-83
2022/10/29 08:00:50;;;;;;;21.50;11.57;;;11.50;99.90;;;;;;5026744;28;20029;-83
2022/10/29 08:03:16;;;;;;;11.57;7.75;;;11.50;99.90;;;;;;5043656;28;20025;-85
2022/10/29 08:05:42;;;;;;;11.43;7.50;;;11.40;99.90;;;;;;5024485;28;20028;-83
2022/10/29 08:08:08;;;;;;;12.25;7.50;;;11.30;99.90;;;;;;5029303;28;20033;-84
2022/10/29 08:10:35;;;;;;;13.95;7.40;;;11.20;99.90;;;;;;5034096;28;20032;-83
2022/10/29 08:13:04;;;;;;;12.80;6.53;;;11.00;99.90;;;;;;5034280;28;20037;-83
2022/10/29 08:15:31;;;;;;;13.90;7.50;;;10.90;99.90;;;;;;5026067;28;20748;-83
2022/10/29 08:18:07;;;;;;;12.02;7.38;;;10.70;99.90;;;;;;5039943;28;20018;-87
2022/10/29 08:20:34;;;;;;;12.07;7.67;;;10.50;99.90;;;;;;5032577;28;20060;-83
2022/10/29 08:23:00;;;;;;;11.55;8.00;;;10.30;99.90;;;;;;5044655;28;20036;-86
2022/10/29 08:25:26;;;;;;;11.85;8.73;;;10.20;99.90;;;;;;5038845;28;20056;-82
2022/10/29 08:28:12;;;;;;;15.38;8.02;;;10.20;99.90;;;;;;5039433;28;20039;-83
2022/10/29 08:30:38;;;;;;;15.77;8.68;;;10.20;99.90;;;;;;5044046;28;20028;-83
2022/10/29 08:33:05;;;;;;;9.73;7.37;;;10.20;99.90;;;;;;5040045;28;20033;-83
2022/10/29 08:35:31;;;;;;;12.10;7.93;;;10.20;99.90;;;;;;5028609;28;20479;-82
2022/10/29 08:37:57;;;;;;;10.50;7.28;;;10.30;99.90;;;;;;5033055;28;20112;-81
2022/10/29 08:40:59;;;;;;;13.73;8.38;;;10.30;99.90;;;;;;5033990;28;20080;-82
2022/10/29 08:43:33;;;;;;;10.65;6.60;;;10.40;99.90;;;;;;5031033;28;20029;-84
2022/10/29 08:45:59;;;;;;;10.95;7.07;;;10.50;99.90;;;;;;5037041;28;20031;-86
2022/10/29 08:48:47;;;;;;;13.15;7.35;;;10.30;99.90;;;;;;5040682;28;20045;-82
2022/10/29 08:51:27;;;;;;;10.18;7.00;;;10.30;99.90;;;;;;5042445;28;20037;-82
2022/10/29 08:53:56;;;;;;;22.40;15.52;;;10.30;99.90;;;;;;5033943;28;20080;-85
2022/10/29 08:56:53;;;;;;;8.82;6.18;;;10.30;99.90;;;;;;5033994;28;20041;-81
2022/10/29 08:59:24;;;;;;;9.18;5.53;;;10.30;99.90;;;;;;5035812;28;20021;-81
2022/10/29 09:01:53;;;;;;;9.63;6.28;;;10.30;99.90;;;;;;5038358;28;20116;-82
2022/10/29 09:04:32;;;;;;;9.07;5.93;;;10.40;99.90;;;;;;5046122;28;20021;-81
2022/10/29 09:07:13;;;;;;;8.45;6.00;;;10.40;99.90;;;;;;5041318;28;20449;-85
2022/10/29 09:09:55;;;;;;;9.13;5.72;;;10.40;99.90;;;;;;5036796;28;20037;-83
2022/10/29 09:12:31;;;;;;;10.13;5.90;;;10.40;99.90;;;;;;5028204;28;20069;-83
2022/10/29 09:15:28;;;;;;;9.25;5.70;;;10.50;99.90;;;;;;5038351;28;20018;-84
2022/10/29 09:18:16;;;;;;;10.13;6.43;;;10.50;99.90;;;;;;5039527;28;20025;-87
2022/10/29 09:21:17;;;;;;;7.90;6.20;;;10.50;99.90;;;;;;5040457;28;20086;-86
2022/10/29 09:24:09;;;;;;;9.48;6.70;;;10.50;99.90;;;;;;5035935;28;20112;-85
2022/10/29 09:27:27;;;;;;;10.13;6.28;;;10.40;99.90;;;;;;5041660;28;20052;-84
2022/10/29 09:30:14;;;;;;;10.98;6.55;;;10.50;99.90;;;;;;5027515;28;20507;-86
2022/10/29 09:33:26;;;;;;;7.80;6.53;;;10.50;99.90;;;;;;5046468;28;20048;-86
2022/10/29 09:36:02;;;;;;;9.15;6.18;;;10.50;99.90;;;;;;5020195;28;20084;-86
2022/10/29 09:38:33;;;;;;;12.40;7.38;;;10.40;99.90;;;;;;5048377;28;20025;-86
2022/10/29 09:41:01;;;;;;;15.35;7.18;;;10.40;99.90;;;;;;5043055;28;20171;-86
2022/10/29 09:43:52;;;;;;;12.63;6.15;;;10.40;99.90;;;;;;5041209;28;20025;-86
2022/10/29 09:46:42;;;;;;;9.52;7.40;;;10.40;99.90;;;;;;5036637;28;20053;-87
2022/10/29 09:49:20;;;;;;;11.48;6.95;;;10.40;99.90;;;;;;5034866;28;20046;-87
2022/10/29 09:51:54;;;;;;;11.50;8.10;;;10.40;99.90;;;;;;5024866;28;20120;-88
2022/10/29 09:54:22;;;;;;;15.35;9.45;;;10.40;99.90;;;;;;5039801;28;20048;-88
2022/10/29 09:56:48;;;;;;;11.85;7.78;;;10.50;99.90;;;;;;5037397;28;20025;-88
2022/10/29 09:59:19;;;;;;;13.50;10.18;;;10.50;99.90;;;;;;5024464;28;20026;-88
2022/10/29 10:01:47;;;;;;;13.48;10.15;;;10.50;99.90;;;;;;5038653;28;20057;-85
2022/10/29 10:04:39;;;;;;;15.48;10.48;;;10.50;99.90;;;;;;5044909;28;20013;-85
2022/10/29 10:07:08;;;;;;;17.65;10.20;;;10.50;99.90;;;;;;5034765;28;20117;-85
2022/10/29 10:09:55;;;;;;;17.80;11.55;;;10.60;99.90;;;;;;5029495;28;20025;-85
2022/10/29 10:12:24;;;;;;;16.88;10.63;;;10.60;99.90;;;;;;5046714;28;20028;-87
2022/10/29 10:15:02;;;;;;;18.33;10.77;;;10.60;99.90;;;;;;5040131;28;20025;-86
2022/10/29 10:17:48;;;;;;;13.32;9.95;;;10.60;99.90;;;;;;5038569;28;20363;-87
2022/10/29 10:20:39;;;;;;;17.50;10.23;;;10.70;99.90;;;;;;5033422;28;20034;-86
2022/10/29 10:23:23;;;;;;;16.50;9.43;;;10.70;99.90;;;;;;5034078;28;20025;-85
2022/10/29 10:25:50;;;;;;;13.70;10.05;;;10.70;99.90;;;;;;5038998;28;20057;-89
2022/10/29 10:28:50;;;;;;;18.92;12.00;;;10.70;99.90;;;;;;5037127;28;20026;-89
2022/10/29 10:31:16;;;;;;;13.10;9.50;;;10.80;99.90;;;;;;5037001;28;20025;-90
2022/10/29 10:33:53;;;;;;;18.58;11.80;;;10.80;99.90;;;;;;5037102;28;20325;-88
2022/10/29 10:36:27;;;;;;;18.60;11.38;;;10.80;99.90;;;;;;5041912;28;20030;-90
2022/10/29 10:38:56;;;;;;;16.17;11.35;;;10.80;99.90;;;;;;5039923;28;20017;-91
2022/10/29 10:41:34;;;;;;;23.88;13.57;;;10.90;99.90;;;;;;5051292;28;20061;-89
2022/10/29 10:44:03;;;;;;;23.90;12.98;;;11.00;99.90;;;;;;5029556;28;20039;-90
2022/10/29 10:46:39;;;;;;;18.70;12.20;;;11.00;99.90;;;;;;5040034;28;20022;-91
2022/10/29 10:49:12;;;;;;;21.65;13.32;;;11.00;99.90;;;;;;5056390;28;20018;-90
2022/10/29 10:51:44;;;;;;;18.63;12.93;;;11.10;99.90;;;;;;5036262;28;20049;-90
2022/10/29 10:54:31;;;;;;;17.40;11.52;;;11.10;99.90;;;;;;5039626;28;20042;-89
2022/10/29 10:57:01;;;;;;;;;;;11.10;99.90;;;;;;5040175;28;20044;-84
2022/10/29 10:59:55;;;;;;;20.00;12.57;;;11.20;99.90;;;;;;5026812;28;19976;-82
2022/10/29 11:02:46;;;;;;;19.60;12.85;;;11.10;99.90;;;;;;5048525;28;20042;-83
2022/10/29 11:05:15;;;;;;;17.88;13.38;;;11.10;99.90;;;;;;5031193;28;20387;-88
2022/10/29 11:07:56;;;;;;;18.83;12.23;;;11.20;99.90;;;;;;5035815;28;20044;-85
2022/10/29 11:10:30;;;;;;;18.33;13.90;;;11.20;99.90;;;;;;5034764;28;20367;-88
2022/10/29 11:13:00;;;;;;;18.88;14.75;;;11.20;99.90;;;;;;5039730;28;20052;-85
2022/10/29 11:15:28;;;;;;;20.02;13.63;;;11.20;99.90;;;;;;5039098;28;20032;-85
2022/10/29 11:18:12;;;;;;;23.38;13.55;;;11.10;99.90;;;;;;5039928;28;20013;-86
2022/10/29 11:20:42;;;;;;;22.63;14.23;;;11.00;99.90;;;;;;5038334;28;20061;-85
2022/10/29 11:23:20;;;;;;;21.48;13.90;;;11.00;99.90;;;;;;5037787;28;20025;-83
2022/10/29 11:25:55;;;;;;;25.02;14.95;;;11.00;99.90;;;;;;5039827;28;20049;-84
2022/10/29 11:28:46;;;;;;;21.60;13.63;;;11.00;99.90;;;;;;5040174;28;20441;-85
2022/10/29 11:31:21;;;;;;;18.85;13.45;;;11.00;99.90;;;;;;5044947;28;20082;-89
2022/10/29 11:34:10;;;;;;;27.30;14.80;;;11.00;99.90;;;;;;5062818;28;20447;-88
2022/10/29 11:36:46;;;;;;;31.67;15.63;;;11.00;99.90;;;;;;5030399;28;20120;-83
2022/10/29 11:39:44;;;;;;;26.48;15.85;;;11.00;99.90;;;;;;5033541;28;20030;-85
2022/10/29 11:42:16;;;;;;;23.63;15.63;;;11.00;99.90;;;;;;5037336;28;20026;-84
2022/10/29 11:44:42;;;;;;;25.20;15.55;;;11.00;99.90;;;;;;5035858;28;20014;-87
2022/10/29 11:47:32;;;;;;;23.45;15.77;;;11.00;99.90;;;;;;5041331;28;20024;-84
2022/10/29 11:50:41;;;;;;;20.73;14.05;;;11.00;99.90;;;;;;5025640;28;20084;-86
2022/10/29 11:53:39;;;;;;;21.65;13.48;;;11.10;99.90;;;;;;5042252;28;20428;-85
2022/10/29 11:56:25;;;;;;;16.83;11.93;;;11.10;99.90;;;;;;5040004;28;20056;-86
2022/10/29 11:59:05;;;;;;;23.08;13.07;;;11.10;99.90;;;;;;5031123;28;20041;-84
2022/10/29 12:01:36;;;;;;;19.95;12.48;;;11.00;99.90;;;;;;5029425;28;20076;-87
2022/10/29 12:04:45;;;;;;;23.17;13.70;;;11.00;99.90;;;;;;5038317;28;20029;-84
2022/10/29 12:07:38;;;;;;;23.90;15.00;;;11.00;99.90;;;;;;5030611;28;20045;-86
2022/10/29 12:10:25;;;;;;;22.73;14.27;;;11.00;99.90;;;;;;5059330;28;20022;-87
2022/10/29 12:12:58;;;;;;;22.02;13.75;;;11.00;99.90;;;;;;5046718;28;20499;-88
2022/10/29 12:15:34;;;;;;;18.08;13.65;;;11.10;99.90;;;;;;5037712;28;20083;-85
2022/10/29 12:18:27;;;;;;;22.23;13.43;;;11.10;99.90;;;;;;5039841;28;20021;-86
2022/10/29 12:20:59;;;;;;;20.73;12.88;;;11.10;99.90;;;;;;5039445;28;20402;-86
2022/10/29 12:24:00;;;;;;;21.45;12.27;;;11.10;99.90;;;;;;5043831;28;20045;-84
2022/10/29 12:27:02;;;;;;;24.58;13.32;;;11.10;99.90;;;;;;5048765;28;20021;-87
2022/10/29 12:30:00;;;;;;;19.02;14.18;;;11.10;99.90;;;;;;5002363;28;20069;-89
2022/10/29 12:32:43;;;;;;;23.63;14.45;;;11.10;99.90;;;;;;5030319;28;20165;-91
2022/10/29 12:35:09;;;;;;;17.98;10.55;;;11.10;99.90;;;;;;5037226;28;20026;-86
2022/10/29 12:38:22;;;;;;;23.35;11.80;;;11.00;99.90;;;;;;5038423;28;20185;-87
2022/10/29 12:40:56;;;;;;;19.65;12.98;;;11.00;99.90;;;;;;5032801;28;20425;-92
2022/10/29 12:43:27;;;;;;;19.98;12.95;;;11.00;99.90;;;;;;5045706;28;20056;-88
2022/10/29 12:46:13;;;;;;;20.23;12.13;;;10.90;99.90;;;;;;5036701;28;20018;-86
2022/10/29 12:48:47;;;;;;;17.13;12.00;;;10.90;99.90;;;;;;5033028;28;20026;-86
2022/10/29 12:51:34;;;;;;;23.98;10.82;;;10.90;99.90;;;;;;5031837;28;20045;-88
2022/10/29 12:54:13;;;;;;;19.75;11.90;;;10.90;99.90;;;;;;5030513;28;20026;-85
2022/10/29 12:56:39;;;;;;;13.43;10.23;;;10.90;99.90;;;;;;5039209;28;20029;-86
2022/10/29 12:59:32;;;;;;;23.08;11.38;;;10.90;99.90;;;;;;5038577;28;20021;-85
2022/10/29 13:02:17;;;;;;;18.50;11.52;;;10.90;99.90;;;;;;5047543;28;20038;-84
2022/10/29 13:05:08;;;;;;;22.85;13.45;;;10.90;99.90;;;;;;5019504;28;20025;-84
2022/10/29 13:07:36;;;;;;;19.42;12.05;;;11.00;99.90;;;;;;5031512;28;20030;-85